sensor_id;sensor_type;location;lat;lon;timestamp;P1;durP1;ratioP1;P2;durP2;ratioP2
18748;SDS011;9503;53.560;10.246;2023-02-15T07:02:30;88.43;;;15.77;;
18748;SDS011;9503;53.560;10.246;2023-02-15T07:04:57;56.70;;;14.57;;
18748;SDS011;9503;53.560;10.246;2023-02-15T07:07:23;46.10;;;13.93;;
18748;SDS011;9503;53.560;10.246;2023-02-15T07:09:50;29.10;;;13.90;;
18748;SDS011;9503;53.560;10.246;2023-02-15T07:12:17;25.90;;;12.93;;
18748;SDS011;9503;53.560;10.246;2023-02-15T07:15:01;28.03;;;13.63;;
18748;SDS011;9503;53.560;10.246;2023-02-15T07:17:30;45.70;;;14.40;;
18748;SDS011;9503;53.560;10.246;2023-02-15T07:19:57;24.73;;;13.27;;
18748;SDS011;9503;53.560;10.246;2023-02-15T07:22:24;32.53;;;15.50;;
18748;SDS011;9503;53.560;10.246;2023-02-15T07:24:51;63.40;;;16.13;;
18748;SDS011;9503;53.560;10.246;2023-02-15T07:27:19;47.97;;;16.03;;
18748;SDS011;9503;53.560;10.246;2023-02-15T07:29:46;39.03;;;14.73;;
18748;SDS011;9503;53.560;10.246;2023-02-15T07:32:12;44.17;;;14.50;;
18748;SDS011;9503;53.560;10.246;2023-02-15T07:34:41;27.37;;;14.40;;
18748;SDS011;9503;53.560;10.246;2023-02-15T07:37:07;53.13;;;16.10;;
18748;SDS011;9503;53.560;10.246;2023-02-15T07:39:34;42.00;;;15.27;;
18748;SDS011;9503;53.560;10.246;2023-02-15T07:42:01;96.30;;;18.33;;
18748;SDS011;9503;53.560;10.246;2023-02-15T07:44:27;83.23;;;18.60;;
18748;SDS011;9503;53.560;10.246;2023-02-15T07:46:54;43.83;;;15.57;;
18748;SDS011;9503;53.560;10.246;2023-02-15T07:49:21;66.40;;;17.93;;
18748;SDS011;9503;53.560;10.246;2023-02-15T07:51:49;73.27;;;18.90;;
18748;SDS011;9503;53.560;10.246;2023-02-15T07:54:16;66.43;;;16.37;;
18748;SDS011;9503;53.560;10.246;2023-02-15T07:56:42;54.73;;;18.33;;
18748;SDS011;9503;53.560;10.246;2023-02-15T07:59:09;120.40;;;21.97;;
18748;SDS011;9503;53.560;10.246;2023-02-15T08:01:37;103.10;;;20.53;;
18748;SDS011;9503;53.560;10.246;2023-02-15T08:04:05;84.43;;;20.17;;
18748;SDS011;9503;53.560;10.246;2023-02-15T08:06:35;82.60;;;19.00;;
18748;SDS011;9503;53.560;10.246;2023-02-15T08:09:04;54.03;;;17.30;;
18748;SDS011;9503;53.560;10.246;2023-02-15T08:11:32;41.47;;;15.60;;
18748;SDS011;9503;53.560;10.246;2023-02-15T08:14:03;65.63;;;18.57;;
18748;SDS011;9503;53.560;10.246;2023-02-15T08:16:32;77.87;;;19.00;;
18748;SDS011;9503;53.560;10.246;2023-02-15T08:19:01;95.07;;;20.30;;
18748;SDS011;9503;53.560;10.246;2023-02-15T08:21:31;156.87;;;24.57;;
18748;SDS011;9503;53.560;10.246;2023-02-15T08:23:58;83.43;;;19.63;;
18748;SDS011;9503;53.560;10.246;2023-02-15T08:26:27;66.23;;;20.03;;
18748;SDS011;9503;53.560;10.246;2023-02-15T08:28:54;57.40;;;19.40;;
18748;SDS011;9503;53.560;10.246;2023-02-15T08:31:22;43.93;;;18.03;;
18748;SDS011;9503;53.560;10.246;2023-02-15T08:33:49;40.47;;;17.77;;
18748;SDS011;9503;53.560;10.246;2023-02-15T08:36:19;88.07;;;19.87;;
18748;SDS011;9503;53.560;10.246;2023-02-15T08:38:46;77.53;;;20.30;;
18748;SDS011;9503;53.560;10.246;2023-02-15T08:41:14;43.13;;;17.67;;
18748;SDS011;9503;53.560;10.246;2023-02-15T08:43:45;64.57;;;18.20;;
18748;SDS011;9503;53.560;10.246;2023-02-15T08:46:14;60.87;;;18.27;;
18748;SDS011;9503;53.560;10.246;2023-02-15T08:48:42;53.30;;;17.83;;
18748;SDS011;9503;53.560;10.246;2023-02-15T08:51:09;110.63;;;20.60;;
18748;SDS011;9503;53.560;10.246;2023-02-15T08:53:37;107.80;;;20.40;;
18748;SDS011;9503;53.560;10.246;2023-02-15T08:56:05;119.13;;;23.40;;
18748;SDS011;9503;53.560;10.246;2023-02-15T08:58:32;93.90;;;23.10;;
18748;SDS011;9503;53.560;10.246;2023-02-15T09:01:00;142.07;;;24.97;;
18748;SDS011;9503;53.560;10.246;2023-02-15T09:03:28;110.63;;;20.50;;
18748;SDS011;9503;53.560;10.246;2023-02-15T09:05:58;78.60;;;21.00;;
18748;SDS011;9503;53.560;10.246;2023-02-15T09:08:25;90.13;;;20.23;;
18748;SDS011;9503;53.560;10.246;2023-02-15T09:10:52;58.53;;;17.60;;
18748;SDS011;9503;53.560;10.246;2023-02-15T09:13:20;57.57;;;19.30;;
18748;SDS011;9503;53.560;10.246;2023-02-15T09:15:47;46.50;;;18.37;;
18748;SDS011;9503;53.560;10.246;2023-02-15T09:18:15;101.90;;;20.10;;
18748;SDS011;9503;53.560;10.246;2023-02-15T09:20:42;50.67;;;17.20;;
18748;SDS011;9503;53.560;10.246;2023-02-15T09:23:09;102.50;;;20.57;;
18748;SDS011;9503;53.560;10.246;2023-02-15T09:25:36;76.97;;;19.13;;
18748;SDS011;9503;53.560;10.246;2023-02-15T09:28:03;115.30;;;20.53;;
18748;SDS011;9503;53.560;10.246;2023-02-15T09:30:29;61.37;;;18.90;;
18748;SDS011;9503;53.560;10.246;2023-02-15T09:32:56;84.43;;;20.33;;
18748;SDS011;9503;53.560;10.246;2023-02-15T09:35:24;60.33;;;19.30;;
18748;SDS011;9503;53.560;10.246;2023-02-15T09:37:51;65.70;;;19.07;;
18748;SDS011;9503;53.560;10.246;2023-02-15T09:40:17;121.63;;;24.03;;
18748;SDS011;9503;53.560;10.246;2023-02-15T09:45:50;81.07;;;18.90;;
18748;SDS011;9503;53.560;10.246;2023-02-15T09:48:36;72.23;;;18.67;;
18748;SDS011;9503;53.560;10.246;2023-02-15T09:51:22;103.70;;;21.70;;
18748;SDS011;9503;53.560;10.246;2023-02-15T09:54:03;64.50;;;18.47;;
18748;SDS011;9503;53.560;10.246;2023-02-15T09:56:39;55.90;;;19.53;;
18748;SDS011;9503;53.560;10.246;2023-02-15T09:59:13;63.57;;;20.10;;
18748;SDS011;9503;53.560;10.246;2023-02-15T10:01:50;84.40;;;20.60;;
18748;SDS011;9503;53.560;10.246;2023-02-15T10:04:28;92.20;;;21.37;;
18748;SDS011;9503;53.560;10.246;2023-02-15T10:07:08;87.00;;;20.20;;
18748;SDS011;9503;53.560;10.246;2023-02-15T10:09:48;82.60;;;21.93;;
18748;SDS011;9503;53.560;10.246;2023-02-15T10:12:31;36.13;;;17.10;;
18748;SDS011;9503;53.560;10.246;2023-02-15T10:18:11;56.13;;;19.70;;
18748;SDS011;9503;53.560;10.246;2023-02-15T10:20:49;72.87;;;19.33;;
18748;SDS011;9503;53.560;10.246;2023-02-15T10:23:31;46.07;;;19.10;;
18748;SDS011;9503;53.560;10.246;2023-02-15T10:26:11;57.90;;;18.57;;
18748;SDS011;9503;53.560;10.246;2023-02-15T10:28:42;60.30;;;18.37;;
18748;SDS011;9503;53.560;10.246;2023-02-15T10:31:16;95.33;;;21.13;;
18748;SDS011;9503;53.560;10.246;2023-02-15T10:34:06;31.03;;;17.37;;
18748;SDS011;9503;53.560;10.246;2023-02-15T10:39:46;45.47;;;18.43;;
18748;SDS011;9503;53.560;10.246;2023-02-15T10:42:20;46.17;;;18.53;;
18748;SDS011;9503;53.560;10.246;2023-02-15T10:45:04;86.00;;;21.37;;
18748;SDS011;9503;53.560;10.246;2023-02-15T10:47:52;48.50;;;18.53;;
18748;SDS011;9503;53.560;10.246;2023-02-15T10:50:30;67.70;;;19.83;;
18748;SDS011;9503;53.560;10.246;2023-02-15T10:53:13;35.73;;;17.43;;
18748;SDS011;9503;53.560;10.246;2023-02-15T10:55:54;34.17;;;17.77;;
18748;SDS011;9503;53.560;10.246;2023-02-15T10:58:29;69.17;;;19.13;;
18748;SDS011;9503;53.560;10.246;2023-02-15T11:01:11;33.87;;;18.30;;
18748;SDS011;9503;53.560;10.246;2023-02-15T11:04:01;36.63;;;17.70;;
18748;SDS011;9503;53.560;10.246;2023-02-15T11:06:46;35.30;;;18.03;;
18748;SDS011;9503;53.560;10.246;2023-02-15T11:09:17;32.63;;;17.80;;
18748;SDS011;9503;53.560;10.246;2023-02-15T11:11:49;33.33;;;18.10;;
18748;SDS011;9503;53.560;10.246;2023-02-15T11:14:20;38.23;;;18.43;;
18748;SDS011;9503;53.560;10.246;2023-02-15T11:19:28;50.53;;;19.83;;
18748;SDS011;9503;53.560;10.246;2023-02-15T11:22:01;44.23;;;20.03;;
18748;SDS011;9503;53.560;10.246;2023-02-15T11:24:40;42.70;;;19.33;;
18748;SDS011;9503;53.560;10.246;2023-02-15T11:27:15;38.47;;;18.93;;
18748;SDS011;9503;53.560;10.246;2023-02-15T11:29:48;38.73;;;19.30;;
18748;SDS011;9503;53.560;10.246;2023-02-15T11:32:21;39.17;;;17.77;;
18748;SDS011;9503;53.560;10.246;2023-02-15T11:34:51;38.97;;;18.63;;
18748;SDS011;9503;53.560;10.246;2023-02-15T11:37:23;59.70;;;20.60;;
18748;SDS011;9503;53.560;10.246;2023-02-15T11:39:53;42.97;;;20.73;;
18748;SDS011;9503;53.560;10.246;2023-02-15T11:42:21;36.17;;;19.63;;
18748;SDS011;9503;53.560;10.246;2023-02-15T11:44:54;40.40;;;20.00;;
18748;SDS011;9503;53.560;10.246;2023-02-15T11:47:25;41.53;;;20.97;;
18748;SDS011;9503;53.560;10.246;2023-02-15T11:49:52;45.87;;;21.00;;
18748;SDS011;9503;53.560;10.246;2023-02-15T11:52:19;39.70;;;20.87;;
18748;SDS011;9503;53.560;10.246;2023-02-15T11:54:46;45.97;;;21.40;;
18748;SDS011;9503;53.560;10.246;2023-02-15T11:57:17;42.63;;;21.73;;
18748;SDS011;9503;53.560;10.246;2023-02-15T11:59:52;39.50;;;20.73;;
18748;SDS011;9503;53.560;10.246;2023-02-15T12:02:24;41.30;;;21.60;;
18748;SDS011;9503;53.560;10.246;2023-02-15T12:04:52;47.30;;;23.63;;
18748;SDS011;9503;53.560;10.246;2023-02-15T12:07:23;50.30;;;24.80;;
18748;SDS011;9503;53.560;10.246;2023-02-15T12:09:55;50.47;;;23.83;;
18748;SDS011;9503;53.560;10.246;2023-02-15T12:12:29;42.30;;;21.83;;
18748;SDS011;9503;53.560;10.246;2023-02-15T12:14:59;48.03;;;23.87;;
18748;SDS011;9503;53.560;10.246;2023-02-15T12:17:27;44.93;;;23.33;;
18748;SDS011;9503;53.560;10.246;2023-02-15T12:19:59;48.03;;;25.07;;
18748;SDS011;9503;53.560;10.246;2023-02-15T12:22:28;39.37;;;22.63;;
18748;SDS011;9503;53.560;10.246;2023-02-15T12:24:58;46.53;;;23.83;;
18748;SDS011;9503;53.560;10.246;2023-02-15T12:27:26;49.03;;;25.13;;
18748;SDS011;9503;53.560;10.246;2023-02-15T12:29:56;47.87;;;25.00;;
18748;SDS011;9503;53.560;10.246;2023-02-15T12:32:27;48.00;;;24.13;;
18748;SDS011;9503;53.560;10.246;2023-02-15T12:34:59;42.57;;;23.17;;
18748;SDS011;9503;53.560;10.246;2023-02-15T12:37:32;40.63;;;22.33;;
18748;SDS011;9503;53.560;10.246;2023-02-15T12:40:00;45.60;;;23.60;;
18748;SDS011;9503;53.560;10.246;2023-02-15T12:42:28;43.90;;;24.53;;
18748;SDS011;9503;53.560;10.246;2023-02-15T12:45:19;46.37;;;23.70;;
18748;SDS011;9503;53.560;10.246;2023-02-15T12:47:50;44.30;;;23.97;;
18748;SDS011;9503;53.560;10.246;2023-02-15T12:50:35;44.63;;;23.50;;
18748;SDS011;9503;53.560;10.246;2023-02-15T12:53:06;50.70;;;25.23;;
18748;SDS011;9503;53.560;10.246;2023-02-15T12:55:34;45.97;;;25.03;;
18748;SDS011;9503;53.560;10.246;2023-02-15T12:58:05;47.10;;;25.30;;
18748;SDS011;9503;53.560;10.246;2023-02-15T13:00:42;46.67;;;24.57;;
18748;SDS011;9503;53.560;10.246;2023-02-15T13:03:15;44.23;;;23.73;;
18748;SDS011;9503;53.560;10.246;2023-02-15T13:05:44;48.20;;;25.37;;
18748;SDS011;9503;53.560;10.246;2023-02-15T13:08:15;42.50;;;22.97;;
18748;SDS011;9503;53.560;10.246;2023-02-15T13:10:52;47.53;;;24.47;;
18748;SDS011;9503;53.560;10.246;2023-02-15T13:13:22;43.50;;;24.07;;
18748;SDS011;9503;53.560;10.246;2023-02-15T13:15:52;44.37;;;23.60;;
18748;SDS011;9503;53.560;10.246;2023-02-15T13:18:26;40.23;;;21.90;;
18748;SDS011;9503;53.560;10.246;2023-02-15T13:20:56;38.00;;;20.87;;
18748;SDS011;9503;53.560;10.246;2023-02-15T13:23:28;38.80;;;21.30;;
18748;SDS011;9503;53.560;10.246;2023-02-15T13:25:58;37.00;;;21.67;;
18748;SDS011;9503;53.560;10.246;2023-02-15T13:28:35;35.40;;;20.37;;
18748;SDS011;9503;53.560;10.246;2023-02-15T13:31:11;34.93;;;20.00;;
18748;SDS011;9503;53.560;10.246;2023-02-15T13:33:42;34.93;;;20.50;;
18748;SDS011;9503;53.560;10.246;2023-02-15T13:36:13;36.07;;;20.80;;
18748;SDS011;9503;53.560;10.246;2023-02-15T13:38:49;41.47;;;21.80;;
18748;SDS011;9503;53.560;10.246;2023-02-15T13:41:26;40.53;;;21.47;;
18748;SDS011;9503;53.560;10.246;2023-02-15T13:43:59;36.97;;;20.37;;
18748;SDS011;9503;53.560;10.246;2023-02-15T13:46:46;37.27;;;21.27;;
18748;SDS011;9503;53.560;10.246;2023-02-15T13:49:26;38.07;;;21.57;;
18748;SDS011;9503;53.560;10.246;2023-02-15T13:52:04;36.67;;;21.17;;
18748;SDS011;9503;53.560;10.246;2023-02-15T13:57:49;36.43;;;20.50;;
18748;SDS011;9503;53.560;10.246;2023-02-15T14:00:28;36.07;;;20.27;;
18748;SDS011;9503;53.560;10.246;2023-02-15T14:06:14;34.57;;;19.93;;
18748;SDS011;9503;53.560;10.246;2023-02-15T14:08:58;36.00;;;19.80;;
18748;SDS011;9503;53.560;10.246;2023-02-15T14:11:38;33.07;;;19.53;;
18748;SDS011;9503;53.560;10.246;2023-02-15T14:17:10;32.83;;;19.47;;
18748;SDS011;9503;53.560;10.246;2023-02-15T14:19:45;33.80;;;19.80;;
18748;SDS011;9503;53.560;10.246;2023-02-15T14:22:19;34.30;;;19.93;;
18748;SDS011;9503;53.560;10.246;2023-02-15T14:24:59;32.70;;;19.43;;
18748;SDS011;9503;53.560;10.246;2023-02-15T14:27:42;36.40;;;20.50;;
18748;SDS011;9503;53.560;10.246;2023-02-15T14:30:26;31.43;;;18.67;;
18748;SDS011;9503;53.560;10.246;2023-02-15T14:32:57;32.67;;;18.77;;
18748;SDS011;9503;53.560;10.246;2023-02-15T14:35:30;31.50;;;18.80;;
18748;SDS011;9503;53.560;10.246;2023-02-15T14:38:01;30.07;;;18.33;;
18748;SDS011;9503;53.560;10.246;2023-02-15T14:40:38;26.60;;;17.40;;
18748;SDS011;9503;53.560;10.246;2023-02-15T14:43:31;28.40;;;17.50;;
18748;SDS011;9503;53.560;10.246;2023-02-15T14:46:10;29.03;;;18.23;;
18748;SDS011;9503;53.560;10.246;2023-02-15T14:48:44;31.40;;;19.70;;
18748;SDS011;9503;53.560;10.246;2023-02-15T14:54:52;28.40;;;17.90;;
18748;SDS011;9503;53.560;10.246;2023-02-15T14:57:27;30.00;;;18.70;;
18748;SDS011;9503;53.560;10.246;2023-02-15T14:59:57;30.37;;;19.30;;
18748;SDS011;9503;53.560;10.246;2023-02-15T15:02:26;34.00;;;19.73;;
18748;SDS011;9503;53.560;10.246;2023-02-15T15:04:56;29.80;;;19.20;;
18748;SDS011;9503;53.560;10.246;2023-02-15T15:07:27;31.57;;;18.47;;
18748;SDS011;9503;53.560;10.246;2023-02-15T15:10:04;33.00;;;19.53;;
18748;SDS011;9503;53.560;10.246;2023-02-15T15:12:41;31.77;;;18.43;;
18748;SDS011;9503;53.560;10.246;2023-02-15T15:15:11;32.20;;;18.87;;
18748;SDS011;9503;53.560;10.246;2023-02-15T15:17:51;32.33;;;19.50;;
18748;SDS011;9503;53.560;10.246;2023-02-15T15:28:59;31.20;;;18.60;;
18748;SDS011;9503;53.560;10.246;2023-02-15T15:31:29;37.13;;;20.20;;
18748;SDS011;9503;53.560;10.246;2023-02-15T15:34:17;31.37;;;18.97;;
18748;SDS011;9503;53.560;10.246;2023-02-15T15:42:56;37.77;;;19.93;;
18748;SDS011;9503;53.560;10.246;2023-02-15T15:45:52;33.83;;;19.90;;
18748;SDS011;9503;53.560;10.246;2023-02-15T15:48:39;35.20;;;20.27;;
18748;SDS011;9503;53.560;10.246;2023-02-15T15:51:10;38.57;;;21.23;;
18748;SDS011;9503;53.560;10.246;2023-02-15T15:53:39;39.20;;;22.33;;
18748;SDS011;9503;53.560;10.246;2023-02-15T15:56:12;35.47;;;21.93;;
18748;SDS011;9503;53.560;10.246;2023-02-15T15:58:44;38.23;;;21.47;;
18748;SDS011;9503;53.560;10.246;2023-02-15T16:01:16;37.57;;;22.20;;
18748;SDS011;9503;53.560;10.246;2023-02-15T16:03:49;39.13;;;21.67;;
18748;SDS011;9503;53.560;10.246;2023-02-15T16:06:27;41.00;;;22.07;;
18748;SDS011;9503;53.560;10.246;2023-02-15T16:08:55;41.50;;;22.00;;
18748;SDS011;9503;53.560;10.246;2023-02-15T16:11:23;43.77;;;23.03;;
18748;SDS011;9503;53.560;10.246;2023-02-15T16:13:51;41.83;;;23.63;;
18748;SDS011;9503;53.560;10.246;2023-02-15T16:16:21;42.23;;;23.53;;
18748;SDS011;9503;53.560;10.246;2023-02-15T16:18:50;44.83;;;24.53;;
18748;SDS011;9503;53.560;10.246;2023-02-15T16:21:20;50.33;;;26.17;;
18748;SDS011;9503;53.560;10.246;2023-02-15T16:26:47;48.87;;;25.03;;
18748;SDS011;9503;53.560;10.246;2023-02-15T16:29:27;52.00;;;26.63;;
18748;SDS011;9503;53.560;10.246;2023-02-15T16:32:03;57.17;;;27.10;;
18748;SDS011;9503;53.560;10.246;2023-02-15T16:34:31;54.83;;;26.53;;
18748;SDS011;9503;53.560;10.246;2023-02-15T16:39:48;52.23;;;26.03;;
18748;SDS011;9503;53.560;10.246;2023-02-15T16:42:16;53.17;;;26.47;;
18748;SDS011;9503;53.560;10.246;2023-02-15T16:44:43;50.97;;;25.13;;
18748;SDS011;9503;53.560;10.246;2023-02-15T16:47:15;57.83;;;27.77;;
18748;SDS011;9503;53.560;10.246;2023-02-15T16:49:45;53.20;;;25.07;;
18748;SDS011;9503;53.560;10.246;2023-02-15T16:52:14;56.50;;;25.90;;
18748;SDS011;9503;53.560;10.246;2023-02-15T16:54:52;54.13;;;26.40;;
18748;SDS011;9503;53.560;10.246;2023-02-15T16:57:22;52.33;;;25.80;;
18748;SDS011;9503;53.560;10.246;2023-02-15T16:59:52;60.33;;;27.47;;
18748;SDS011;9503;53.560;10.246;2023-02-15T17:02:24;56.20;;;25.83;;
18748;SDS011;9503;53.560;10.246;2023-02-15T17:05:10;59.13;;;26.70;;
18748;SDS011;9503;53.560;10.246;2023-02-15T17:07:48;50.27;;;24.47;;
18748;SDS011;9503;53.560;10.246;2023-02-15T17:10:25;50.13;;;24.77;;
18748;SDS011;9503;53.560;10.246;2023-02-15T17:12:54;46.03;;;22.43;;
18748;SDS011;9503;53.560;10.246;2023-02-15T17:15:28;45.23;;;22.50;;
18748;SDS011;9503;53.560;10.246;2023-02-15T17:17:58;45.80;;;23.13;;
18748;SDS011;9503;53.560;10.246;2023-02-15T17:20:28;40.27;;;21.00;;
18748;SDS011;9503;53.560;10.246;2023-02-15T17:22:55;46.77;;;22.83;;
18748;SDS011;9503;53.560;10.246;2023-02-15T17:25:24;48.97;;;23.37;;
18748;SDS011;9503;53.560;10.246;2023-02-15T17:27:56;42.50;;;21.93;;
18748;SDS011;9503;53.560;10.246;2023-02-15T17:30:24;39.97;;;21.63;;
18748;SDS011;9503;53.560;10.246;2023-02-15T17:32:56;38.90;;;20.37;;
18748;SDS011;9503;53.560;10.246;2023-02-15T17:35:26;37.37;;;19.40;;
18748;SDS011;9503;53.560;10.246;2023-02-15T17:38:01;43.20;;;21.47;;
18748;SDS011;9503;53.560;10.246;2023-02-15T17:40:31;40.70;;;21.27;;
18748;SDS011;9503;53.560;10.246;2023-02-15T17:42:59;43.10;;;21.03;;
18748;SDS011;9503;53.560;10.246;2023-02-15T17:45:30;42.53;;;22.40;;
18748;SDS011;9503;53.560;10.246;2023-02-15T17:47:59;40.20;;;21.30;;
18748;SDS011;9503;53.560;10.246;2023-02-15T17:50:30;40.03;;;21.17;;
18748;SDS011;9503;53.560;10.246;2023-02-15T17:52:58;41.13;;;21.53;;
18748;SDS011;9503;53.560;10.246;2023-02-15T17:55:26;40.33;;;22.20;;
18748;SDS011;9503;53.560;10.246;2023-02-15T17:58:05;42.57;;;20.60;;
